sensor_id;sensor_type;location;lat;lon;timestamp;temperature;humidity
5759;DHT22;2904;48.788;9.196;2022-10-24T00:00:34;18.50;99.90
5759;DHT22;2904;48.788;9.196;2022-10-24T00:03:00;18.50;99.90
5759;DHT22;2904;48.788;9.196;2022-10-24T00:05:26;18.40;99.90
5759;DHT22;2904;48.788;9.196;2022-10-24T00:07:51;18.40;99.90
5759;DHT22;2904;48.788;9.196;2022-10-24T00:10:18;18.30;99.90
5759;DHT22;2904;48.788;9.196;2022-10-24T00:12:44;18.30;99.90
5759;DHT22;2904;48.788;9.196;2022-10-24T00:15:11;18.20;99.90
5759;DHT22;2904;48.788;9.196;2022-10-24T00:17:36;18.20;99.90
5759;DHT22;2904;48.788;9.196;2022-10-24T00:20:03;18.20;99.90
5759;DHT22;2904;48.788;9.196;2022-10-24T00:22:29;18.10;99.90
5759;DHT22;2904;48.788;9.196;2022-10-24T00:24:55;18.10;99.90
5759;DHT22;2904;48.788;9.196;2022-10-24T00:27:20;18.10;99.90
5759;DHT22;2904;48.788;9.196;2022-10-24T00:29:46;18.10;99.90
5759;DHT22;2904;48.788;9.196;2022-10-24T00:32:12;18.00;99.90
5759;DHT22;2904;48.788;9.196;2022-10-24T00:34:39;18.00;99.90
5759;DHT22;2904;48.788;9.196;2022-10-24T00:37:05;18.00;99.90
5759;DHT22;2904;48.788;9.196;2022-10-24T00:39:31;18.00;99.90
5759;DHT22;2904;48.788;9.196;2022-10-24T00:41:57;17.90;99.90
5759;DHT22;2904;48.788;9.196;2022-10-24T00:44:29;17.90;99.90
5759;DHT22;2904;48.788;9.196;2022-10-24T00:47:00;17.90;99.90
5759;DHT22;2904;48.788;9.196;2022-10-24T00:49:31;17.80;99.90
5759;DHT22;2904;48.788;9.196;2022-10-24T00:52:03;17.70;99.90
5759;DHT22;2904;48.788;9.196;2022-10-24T00:54:29;17.70;99.90
5759;DHT22;2904;48.788;9.196;2022-10-24T00:57:14;17.70;99.90
5759;DHT22;2904;48.788;9.196;2022-10-24T00:59:42;17.70;99.90
5759;DHT22;2904;48.788;9.196;2022-10-24T01:02:10;17.60;99.90
5759;DHT22;2904;48.788;9.196;2022-10-24T01:04:36;17.60;99.90
5759;DHT22;2904;48.788;9.196;2022-10-24T01:07:19;17.50;99.90
5759;DHT22;2904;48.788;9.196;2022-10-24T01:13:43;17.50;99.90
5759;DHT22;2904;48.788;9.196;2022-10-24T01:16:16;17.40;99.90
5759;DHT22;2904;48.788;9.196;2022-10-24T01:19:01;17.40;99.90
5759;DHT22;2904;48.788;9.196;2022-10-24T01:21:47;17.30;99.90
5759;DHT22;2904;48.788;9.196;2022-10-24T01:27:56;17.30;99.90
5759;DHT22;2904;48.788;9.196;2022-10-24T01:30:26;17.40;99.90
5759;DHT22;2904;48.788;9.196;2022-10-24T01:33:03;17.40;99.90
5759;DHT22;2904;48.788;9.196;2022-10-24T01:35:49;17.40;99.90
5759;DHT22;2904;48.788;9.196;2022-10-24T01:38:27;17.40;99.90
5759;DHT22;2904;48.788;9.196;2022-10-24T01:42:48;17.40;99.90
5759;DHT22;2904;48.788;9.196;2022-10-24T01:45:19;17.40;99.90
5759;DHT22;2904;48.788;9.196;2022-10-24T01:47:50;17.40;99.90
5759;DHT22;2904;48.788;9.196;2022-10-24T01:50:19;17.40;99.90
5759;DHT22;2904;48.788;9.196;2022-10-24T01:52:46;17.40;99.90
5759;DHT22;2904;48.788;9.196;2022-10-24T01:55:12;17.40;99.90
5759;DHT22;2904;48.788;9.196;2022-10-24T01:57:39;17.30;99.90
5759;DHT22;2904;48.788;9.196;2022-10-24T02:00:07;17.30;99.90
5759;DHT22;2904;48.788;9.196;2022-10-24T02:02:44;17.30;99.90
5759;DHT22;2904;48.788;9.196;2022-10-24T02:05:16;17.30;99.90
5759;DHT22;2904;48.788;9.196;2022-10-24T02:07:46;17.20;99.90
5759;DHT22;2904;48.788;9.196;2022-10-24T02:10:18;17.20;99.90
5759;DHT22;2904;48.788;9.196;2022-10-24T02:12:50;17.20;99.90
5759;DHT22;2904;48.788;9.196;2022-10-24T02:15:32;17.20;99.90
5759;DHT22;2904;48.788;9.196;2022-10-24T02:17:59;17.20;99.90
5759;DHT22;2904;48.788;9.196;2022-10-24T02:20:34;17.20;99.90
5759;DHT22;2904;48.788;9.196;2022-10-24T02:23:18;17.20;99.90
5759;DHT22;2904;48.788;9.196;2022-10-24T02:25:48;17.10;99.90
5759;DHT22;2904;48.788;9.196;2022-10-24T02:28:21;17.20;99.90
5759;DHT22;2904;48.788;9.196;2022-10-24T02:31:04;17.20;99.90
5759;DHT22;2904;48.788;9.196;2022-10-24T02:33:33;17.20;99.90
5759;DHT22;2904;48.788;9.196;2022-10-24T02:36:00;17.20;99.90
5759;DHT22;2904;48.788;9.196;2022-10-24T02:38:34;17.20;99.90
5759;DHT22;2904;48.788;9.196;2022-10-24T02:41:03;17.20;99.90
5759;DHT22;2904;48.788;9.196;2022-10-24T02:43:31;17.20;99.90
5759;DHT22;2904;48.788;9.196;2022-10-24T02:45:57;17.20;99.90
5759;DHT22;2904;48.788;9.196;2022-10-24T02:48:27;17.20;99.90
5759;DHT22;2904;48.788;9.196;2022-10-24T02:50:54;17.20;99.90
5759;DHT22;2904;48.788;9.196;2022-10-24T02:53:21;17.20;99.90
5759;DHT22;2904;48.788;9.196;2022-10-24T02:55:48;17.20;99.90
5759;DHT22;2904;48.788;9.196;2022-10-24T02:58:14;17.20;99.90
5759;DHT22;2904;48.788;9.196;2022-10-24T03:00:40;17.20;99.90
5759;DHT22;2904;48.788;9.196;2022-10-24T03:03:06;17.20;99.90
5759;DHT22;2904;48.788;9.196;2022-10-24T03:05:31;17.20;99.90
5759;DHT22;2904;48.788;9.196;2022-10-24T03:07:57;17.10;99.90
5759;DHT22;2904;48.788;9.196;2022-10-24T03:10:22;17.10;99.90
5759;DHT22;2904;48.788;9.196;2022-10-24T03:12:48;17.10;99.90
5759;DHT22;2904;48.788;9.196;2022-10-24T03:15:14;17.20;99.90
5759;DHT22;2904;48.788;9.196;2022-10-24T03:17:40;17.20;99.90
5759;DHT22;2904;48.788;9.196;2022-10-24T03:20:06;17.20;99.90
5759;DHT22;2904;48.788;9.196;2022-10-24T03:22:32;17.20;99.90
5759;DHT22;2904;48.788;9.196;2022-10-24T03:24:57;17.30;99.90
5759;DHT22;2904;48.788;9.196;2022-10-24T03:27:27;19.50;99.90
5759;DHT22;2904;48.788;9.196;2022-10-24T03:29:53;17.30;99.90
5759;DHT22;2904;48.788;9.196;2022-10-24T03:32:19;17.20;99.90
5759;DHT22;2904;48.788;9.196;2022-10-24T03:34:45;17.20;99.90
5759;DHT22;2904;48.788;9.196;2022-10-24T03:37:10;17.10;99.90
5759;DHT22;2904;48.788;9.196;2022-10-24T03:39:36;17.20;99.90
5759;DHT22;2904;48.788;9.196;2022-10-24T03:42:02;17.10;99.90
5759;DHT22;2904;48.788;9.196;2022-10-24T03:44:27;17.10;99.90
5759;DHT22;2904;48.788;9.196;2022-10-24T03:46:53;17.10;99.90
5759;DHT22;2904;48.788;9.196;2022-10-24T03:49:19;17.10;99.90
5759;DHT22;2904;48.788;9.196;2022-10-24T03:51:45;17.10;99.90
5759;DHT22;2904;48.788;9.196;2022-10-24T03:54:11;17.10;99.90
5759;DHT22;2904;48.788;9.196;2022-10-24T03:56:40;17.00;99.90
5759;DHT22;2904;48.788;9.196;2022-10-24T03:59:06;17.00;99.90
5759;DHT22;2904;48.788;9.196;2022-10-24T04:01:32;17.00;99.90
5759;DHT22;2904;48.788;9.196;2022-10-24T04:03:58;17.00;99.90
5759;DHT22;2904;48.788;9.196;2022-10-24T04:06:24;16.90;99.90
5759;DHT22;2904;48.788;9.196;2022-10-24T04:08:49;16.90;99.90
5759;DHT22;2904;48.788;9.196;2022-10-24T04:11:15;16.80;99.90
5759;DHT22;2904;48.788;9.196;2022-10-24T04:13:40;16.80;99.90
5759;DHT22;2904;48.788;9.196;2022-10-24T04:16:07;16.80;99.90
5759;DHT22;2904;48.788;9.196;2022-10-24T04:18:33;16.80;99.90
5759;DHT22;2904;48.788;9.196;2022-10-24T04:20:58;19.60;99.90
5759;DHT22;2904;48.788;9.196;2022-10-24T04:23:24;16.70;99.90
5759;DHT22;2904;48.788;9.196;2022-10-24T04:28:17;16.70;99.90
5759;DHT22;2904;48.788;9.196;2022-10-24T04:30:43;16.70;99.90
5759;DHT22;2904;48.788;9.196;2022-10-24T04:33:09;16.70;99.90
5759;DHT22;2904;48.788;9.196;2022-10-24T04:35:35;16.70;99.90
5759;DHT22;2904;48.788;9.196;2022-10-24T04:38:00;16.70;99.90
5759;DHT22;2904;48.788;9.196;2022-10-24T04:40:26;13.40;99.90
5759;DHT22;2904;48.788;9.196;2022-10-24T04:42:51;16.70;99.90
5759;DHT22;2904;48.788;9.196;2022-10-24T04:45:17;16.60;99.90
5759;DHT22;2904;48.788;9.196;2022-10-24T04:47:43;16.70;99.90
5759;DHT22;2904;48.788;9.196;2022-10-24T04:50:09;16.70;99.90
5759;DHT22;2904;48.788;9.196;2022-10-24T04:52:35;16.70;99.90
5759;DHT22;2904;48.788;9.196;2022-10-24T04:55:00;16.70;99.90
5759;DHT22;2904;48.788;9.196;2022-10-24T04:57:26;16.80;99.90
5759;DHT22;2904;48.788;9.196;2022-10-24T04:59:52;16.80;99.90
5759;DHT22;2904;48.788;9.196;2022-10-24T05:02:17;16.70;99.90
5759;DHT22;2904;48.788;9.196;2022-10-24T05:04:43;16.70;99.90
5759;DHT22;2904;48.788;9.196;2022-10-24T05:07:09;16.80;99.90
5759;DHT22;2904;48.788;9.196;2022-10-24T05:09:34;16.80;99.90
5759;DHT22;2904;48.788;9.196;2022-10-24T05:12:00;16.80;99.90
5759;DHT22;2904;48.788;9.196;2022-10-24T05:14:26;16.80;99.90
5759;DHT22;2904;48.788;9.196;2022-10-24T05:16:52;16.90;99.90
5759;DHT22;2904;48.788;9.196;2022-10-24T05:19:18;17.00;99.90
5759;DHT22;2904;48.788;9.196;2022-10-24T05:21:44;17.30;99.90
5759;DHT22;2904;48.788;9.196;2022-10-24T05:24:10;17.10;99.90
5759;DHT22;2904;48.788;9.196;2022-10-24T05:26:36;17.20;99.90
5759;DHT22;2904;48.788;9.196;2022-10-24T05:29:01;17.30;99.90
5759;DHT22;2904;48.788;9.196;2022-10-24T05:31:27;19.30;99.90
5759;DHT22;2904;48.788;9.196;2022-10-24T05:33:52;17.40;99.90
5759;DHT22;2904;48.788;9.196;2022-10-24T05:36:18;17.40;99.90
5759;DHT22;2904;48.788;9.196;2022-10-24T05:38:44;17.50;99.90
5759;DHT22;2904;48.788;9.196;2022-10-24T05:41:10;17.50;99.90
5759;DHT22;2904;48.788;9.196;2022-10-24T05:43:36;17.50;99.90
5759;DHT22;2904;48.788;9.196;2022-10-24T05:46:02;17.50;99.90
5759;DHT22;2904;48.788;9.196;2022-10-24T05:48:27;17.50;99.90
5759;DHT22;2904;48.788;9.196;2022-10-24T05:50:57;17.40;99.90
5759;DHT22;2904;48.788;9.196;2022-10-24T05:53:24;17.40;99.90
5759;DHT22;2904;48.788;9.196;2022-10-24T05:55:49;17.40;99.90
5759;DHT22;2904;48.788;9.196;2022-10-24T05:58:15;17.30;99.90
5759;DHT22;2904;48.788;9.196;2022-10-24T06:00:46;17.20;99.90
5759;DHT22;2904;48.788;9.196;2022-10-24T06:03:11;17.30;99.90
5759;DHT22;2904;48.788;9.196;2022-10-24T06:05:37;17.30;99.90
5759;DHT22;2904;48.788;9.196;2022-10-24T06:08:03;17.30;99.90
5759;DHT22;2904;48.788;9.196;2022-10-24T06:10:29;17.30;99.90
5759;DHT22;2904;48.788;9.196;2022-10-24T06:12:55;17.00;99.90
5759;DHT22;2904;48.788;9.196;2022-10-24T06:15:20;16.50;99.90
5759;DHT22;2904;48.788;9.196;2022-10-24T06:17:46;16.00;99.90
5759;DHT22;2904;48.788;9.196;2022-10-24T06:20:11;15.70;99.90
5759;DHT22;2904;48.788;9.196;2022-10-24T06:22:37;15.50;99.90
5759;DHT22;2904;48.788;9.196;2022-10-24T06:25:03;15.30;99.90
5759;DHT22;2904;48.788;9.196;2022-10-24T06:27:29;15.20;99.90
5759;DHT22;2904;48.788;9.196;2022-10-24T06:29:55;15.10;99.90
5759;DHT22;2904;48.788;9.196;2022-10-24T06:32:21;15.10;99.90
5759;DHT22;2904;48.788;9.196;2022-10-24T06:34:46;15.00;99.90
5759;DHT22;2904;48.788;9.196;2022-10-24T06:37:12;15.00;99.90
5759;DHT22;2904;48.788;9.196;2022-10-24T06:39:38;15.00;99.90
5759;DHT22;2904;48.788;9.196;2022-10-24T06:42:03;15.00;99.90
5759;DHT22;2904;48.788;9.196;2022-10-24T06:44:30;15.10;99.90
5759;DHT22;2904;48.788;9.196;2022-10-24T06:46:55;15.10;99.90
5759;DHT22;2904;48.788;9.196;2022-10-24T06:49:21;15.10;99.90
5759;DHT22;2904;48.788;9.196;2022-10-24T06:51:47;15.20;99.90
5759;DHT22;2904;48.788;9.196;2022-10-24T06:54:13;15.20;99.90
5759;DHT22;2904;48.788;9.196;2022-10-24T06:56:39;15.20;99.90
5759;DHT22;2904;48.788;9.196;2022-10-24T06:59:10;15.20;99.90
5759;DHT22;2904;48.788;9.196;2022-10-24T07:01:36;15.20;99.90
5759;DHT22;2904;48.788;9.196;2022-10-24T07:04:02;15.30;99.90
5759;DHT22;2904;48.788;9.196;2022-10-24T07:06:28;15.30;99.90
5759;DHT22;2904;48.788;9.196;2022-10-24T07:08:57;15.30;99.90
5759;DHT22;2904;48.788;9.196;2022-10-24T07:11:23;15.30;99.90
5759;DHT22;2904;48.788;9.196;2022-10-24T07:13:49;15.30;99.90
5759;DHT22;2904;48.788;9.196;2022-10-24T07:16:15;15.40;99.90
5759;DHT22;2904;48.788;9.196;2022-10-24T07:18:41;15.40;99.90
5759;DHT22;2904;48.788;9.196;2022-10-24T07:21:13;15.40;99.90
5759;DHT22;2904;48.788;9.196;2022-10-24T07:23:39;15.40;99.90
5759;DHT22;2904;48.788;9.196;2022-10-24T07:26:10;15.40;99.90
5759;DHT22;2904;48.788;9.196;2022-10-24T07:28:38;15.40;99.90
5759;DHT22;2904;48.788;9.196;2022-10-24T07:31:04;15.40;99.90
5759;DHT22;2904;48.788;9.196;2022-10-24T07:33:30;15.40;99.90
5759;DHT22;2904;48.788;9.196;2022-10-24T07:35:56;15.40;99.90
5759;DHT22;2904;48.788;9.196;2022-10-24T07:38:22;15.40;99.90
5759;DHT22;2904;48.788;9.196;2022-10-24T07:40:48;15.40;99.90
5759;DHT22;2904;48.788;9.196;2022-10-24T07:43:14;15.50;99.90
5759;DHT22;2904;48.788;9.196;2022-10-24T07:45:41;15.50;99.90
5759;DHT22;2904;48.788;9.196;2022-10-24T07:48:07;15.50;99.90
5759;DHT22;2904;48.788;9.196;2022-10-24T07:50:34;15.50;99.90
5759;DHT22;2904;48.788;9.196;2022-10-24T07:53:05;15.60;99.90
5759;DHT22;2904;48.788;9.196;2022-10-24T07:55:31;15.60;99.90
5759;DHT22;2904;48.788;9.196;2022-10-24T07:57:57;15.60;99.90
5759;DHT22;2904;48.788;9.196;2022-10-24T08:00:22;15.60;99.90
5759;DHT22;2904;48.788;9.196;2022-10-24T08:02:49;15.60;99.90
5759;DHT22;2904;48.788;9.196;2022-10-24T08:05:15;15.60;99.90
5759;DHT22;2904;48.788;9.196;2022-10-24T08:07:41;15.60;99.90
5759;DHT22;2904;48.788;9.196;2022-10-24T08:10:09;15.60;99.90
5759;DHT22;2904;48.788;9.196;2022-10-24T08:12:35;15.60;99.90
5759;DHT22;2904;48.788;9.196;2022-10-24T08:15:01;15.60;99.90
5759;DHT22;2904;48.788;9.196;2022-10-24T08:17:27;15.60;99.90
5759;DHT22;2904;48.788;9.196;2022-10-24T08:19:52;15.60;99.90
5759;DHT22;2904;48.788;9.196;2022-10-24T08:22:18;15.60;99.90
5759;DHT22;2904;48.788;9.196;2022-10-24T08:24:45;15.60;99.90
5759;DHT22;2904;48.788;9.196;2022-10-24T08:27:12;15.60;99.90
5759;DHT22;2904;48.788;9.196;2022-10-24T08:29:38;15.60;99.90
5759;DHT22;2904;48.788;9.196;2022-10-24T08:32:04;15.60;99.90
5759;DHT22;2904;48.788;9.196;2022-10-24T08:34:31;15.60;99.90
5759;DHT22;2904;48.788;9.196;2022-10-24T08:36:57;15.70;99.90
5759;DHT22;2904;48.788;9.196;2022-10-24T08:39:23;15.80;99.90
5759;DHT22;2904;48.788;9.196;2022-10-24T08:41:54;15.90;99.90
5759;DHT22;2904;48.788;9.196;2022-10-24T08:44:36;15.80;99.90
5759;DHT22;2904;48.788;9.196;2022-10-24T08:48:02;15.90;99.90
5759;DHT22;2904;48.788;9.196;2022-10-24T08:50:32;15.90;99.90
5759;DHT22;2904;48.788;9.196;2022-10-24T08:53:18;16.00;99.90
5759;DHT22;2904;48.788;9.196;2022-10-24T08:55:52;16.00;99.90
5759;DHT22;2904;48.788;9.196;2022-10-24T08:58:24;16.00;99.90
5759;DHT22;2904;48.788;9.196;2022-10-24T09:00:52;16.00;99.90
5759;DHT22;2904;48.788;9.196;2022-10-24T09:03:43;16.00;99.90
5759;DHT22;2904;48.788;9.196;2022-10-24T09:06:21;16.10;99.90
5759;DHT22;2904;48.788;9.196;2022-10-24T09:09:03;16.10;99.90
5759;DHT22;2904;48.788;9.196;2022-10-24T09:11:53;16.10;99.90
5759;DHT22;2904;48.788;9.196;2022-10-24T09:14:29;16.10;99.90
5759;DHT22;2904;48.788;9.196;2022-10-24T09:17:02;16.00;99.90
5759;DHT22;2904;48.788;9.196;2022-10-24T09:19:34;16.10;99.90
5759;DHT22;2904;48.788;9.196;2022-10-24T09:22:00;16.10;99.90
5759;DHT22;2904;48.788;9.196;2022-10-24T09:24:44;16.20;99.90
5759;DHT22;2904;48.788;9.196;2022-10-24T09:27:31;16.20;99.90
5759;DHT22;2904;48.788;9.196;2022-10-24T09:29:57;16.20;99.90
5759;DHT22;2904;48.788;9.196;2022-10-24T09:32:29;16.30;99.90
5759;DHT22;2904;48.788;9.196;2022-10-24T09:35:05;16.30;99.90
5759;DHT22;2904;48.788;9.196;2022-10-24T09:37:40;16.20;99.90
5759;DHT22;2904;48.788;9.196;2022-10-24T09:40:39;16.20;99.90
5759;DHT22;2904;48.788;9.196;2022-10-24T09:44:07;16.20;99.90
5759;DHT22;2904;48.788;9.196;2022-10-24T09:46:51;16.20;99.90
5759;DHT22;2904;48.788;9.196;2022-10-24T09:49:19;16.20;99.90
5759;DHT22;2904;48.788;9.196;2022-10-24T09:52:04;16.10;99.90
5759;DHT22;2904;48.788;9.196;2022-10-24T09:54:31;16.10;99.90
5759;DHT22;2904;48.788;9.196;2022-10-24T09:57:15;16.10;99.90
5759;DHT22;2904;48.788;9.196;2022-10-24T09:59:47;16.10;99.90
5759;DHT22;2904;48.788;9.196;2022-10-24T10:02:19;16.10;99.90
5759;DHT22;2904;48.788;9.196;2022-10-24T10:04:47;16.10;99.90
5759;DHT22;2904;48.788;9.196;2022-10-24T10:07:16;16.20;99.90
5759;DHT22;2904;48.788;9.196;2022-10-24T10:09:50;16.30;99.90
5759;DHT22;2904;48.788;9.196;2022-10-24T10:12:37;16.30;99.90
5759;DHT22;2904;48.788;9.196;2022-10-24T10:15:25;16.30;99.90
5759;DHT22;2904;48.788;9.196;2022-10-24T10:17:55;16.40;99.90
5759;DHT22;2904;48.788;9.196;2022-10-24T10:20:39;16.40;99.90
5759;DHT22;2904;48.788;9.196;2022-10-24T10:23:21;16.50;99.90
5759;DHT22;2904;48.788;9.196;2022-10-24T10:28:22;16.60;99.90
5759;DHT22;2904;48.788;9.196;2022-10-24T10:30:49;16.50;99.90
5759;DHT22;2904;48.788;9.196;2022-10-24T10:33:27;16.50;99.90
5759;DHT22;2904;48.788;9.196;2022-10-24T10:36:09;16.60;99.90
5759;DHT22;2904;48.788;9.196;2022-10-24T10:47:41;17.10;99.90
5759;DHT22;2904;48.788;9.196;2022-10-24T10:51:12;17.20;99.90
5759;DHT22;2904;48.788;9.196;2022-10-24T10:53:56;17.20;99.90
5759;DHT22;2904;48.788;9.196;2022-10-24T10:57:06;17.10;99.90
5759;DHT22;2904;48.788;9.196;2022-10-24T11:00:08;17.20;99.90
5759;DHT22;2904;48.788;9.196;2022-10-24T11:03:00;17.20;99.90
5759;DHT22;2904;48.788;9.196;2022-10-24T11:06:24;17.20;99.90
5759;DHT22;2904;48.788;9.196;2022-10-24T11:09:23;17.20;99.90
5759;DHT22;2904;48.788;9.196;2022-10-24T11:12:14;17.20;99.90
5759;DHT22;2904;48.788;9.196;2022-10-24T11:14:48;17.20;99.90
5759;DHT22;2904;48.788;9.196;2022-10-24T11:17:23;17.30;99.90
5759;DHT22;2904;48.788;9.196;2022-10-24T11:20:29;17.20;99.90
5759;DHT22;2904;48.788;9.196;2022-10-24T11:23:23;17.20;99.90
5759;DHT22;2904;48.788;9.196;2022-10-24T11:26:11;17.30;99.90
5759;DHT22;2904;48.788;9.196;2022-10-24T11:28:53;17.20;99.90
5759;DHT22;2904;48.788;9.196;2022-10-24T11:31:39;17.30;99.90
5759;DHT22;2904;48.788;9.196;2022-10-24T11:34:36;17.30;99.90
5759;DHT22;2904;48.788;9.196;2022-10-24T11:37:14;17.30;99.90
5759;DHT22;2904;48.788;9.196;2022-10-24T11:39:56;17.30;99.90
5759;DHT22;2904;48.788;9.196;2022-10-24T11:42:54;17.30;99.90
5759;DHT22;2904;48.788;9.196;2022-10-24T11:45:32;17.30;99.90
5759;DHT22;2904;48.788;9.196;2022-10-24T11:49:33;17.30;99.90
5759;DHT22;2904;48.788;9.196;2022-10-24T11:52:13;17.40;99.90
5759;DHT22;2904;48.788;9.196;2022-10-24T11:54:51;17.40;99.90
5759;DHT22;2904;48.788;9.196;2022-10-24T11:57:22;17.40;99.90
5759;DHT22;2904;48.788;9.196;2022-10-24T11:59:52;17.50;99.90
5759;DHT22;2904;48.788;9.196;2022-10-24T12:08:12;17.50;99.90
5759;DHT22;2904;48.788;9.196;2022-10-24T12:13:53;17.50;99.90
5759;DHT22;2904;48.788;9.196;2022-10-24T12:20:19;17.50;99.90
5759;DHT22;2904;48.788;9.196;2022-10-24T12:22:46;17.50;99.90
5759;DHT22;2904;48.788;9.196;2022-10-24T12:25:31;17.50;99.90
5759;DHT22;2904;48.788;9.196;2022-10-24T12:28:22;17.50;99.90
5759;DHT22;2904;48.788;9.196;2022-10-24T12:31:18;17.50;99.90
5759;DHT22;2904;48.788;9.196;2022-10-24T12:34:28;17.50;99.90
5759;DHT22;2904;48.788;9.196;2022-10-24T12:41:55;17.50;99.90
5759;DHT22;2904;48.788;9.196;2022-10-24T12:44:36;17.50;99.90
5759;DHT22;2904;48.788;9.196;2022-10-24T12:47:32;17.60;99.90
5759;DHT22;2904;48.788;9.196;2022-10-24T12:50:55;17.60;99.90
5759;DHT22;2904;48.788;9.196;2022-10-24T12:53:33;17.60;99.90
5759;DHT22;2904;48.788;9.196;2022-10-24T12:56:11;17.60;99.90
5759;DHT22;2904;48.788;9.196;2022-10-24T12:58:40;17.60;99.90
5759;DHT22;2904;48.788;9.196;2022-10-24T13:01:30;17.70;99.90
5759;DHT22;2904;48.788;9.196;2022-10-24T13:12:59;17.90;99.90
5759;DHT22;2904;48.788;9.196;2022-10-24T13:22:03;17.90;99.90
5759;DHT22;2904;48.788;9.196;2022-10-24T13:24:37;17.90;99.90
5759;DHT22;2904;48.788;9.196;2022-10-24T13:27:29;18.00;99.90
5759;DHT22;2904;48.788;9.196;2022-10-24T13:30:00;18.00;99.90
5759;DHT22;2904;48.788;9.196;2022-10-24T13:32:33;18.00;99.90
5759;DHT22;2904;48.788;9.196;2022-10-24T13:35:01;18.10;99.90
5759;DHT22;2904;48.788;9.196;2022-10-24T13:37:35;18.10;99.90
5759;DHT22;2904;48.788;9.196;2022-10-24T13:40:14;18.10;99.90
5759;DHT22;2904;48.788;9.196;2022-10-24T13:42:50;18.10;99.90
5759;DHT22;2904;48.788;9.196;2022-10-24T13:45:43;18.10;99.90
5759;DHT22;2904;48.788;9.196;2022-10-24T13:48:17;18.10;99.90
5759;DHT22;2904;48.788;9.196;2022-10-24T14:00:25;18.00;99.90
5759;DHT22;2904;48.788;9.196;2022-10-24T14:02:52;18.10;99.90
5759;DHT22;2904;48.788;9.196;2022-10-24T14:05:31;18.10;99.90
5759;DHT22;2904;48.788;9.196;2022-10-24T14:07:58;18.10;99.90
5759;DHT22;2904;48.788;9.196;2022-10-24T14:10:25;18.10;99.90
5759;DHT22;2904;48.788;9.196;2022-10-24T14:12:52;18.10;99.90
5759;DHT22;2904;48.788;9.196;2022-10-24T14:15:26;18.10;99.90
5759;DHT22;2904;48.788;9.196;2022-10-24T14:17:58;18.10;99.90
5759;DHT22;2904;48.788;9.196;2022-10-24T14:20:34;18.10;99.90
5759;DHT22;2904;48.788;9.196;2022-10-24T14:23:00;18.10;99.90
5759;DHT22;2904;48.788;9.196;2022-10-24T14:25:33;18.10;99.90
5759;DHT22;2904;48.788;9.196;2022-10-24T14:28:17;18.00;99.90
5759;DHT22;2904;48.788;9.196;2022-10-24T14:31:21;18.00;99.90
5759;DHT22;2904;48.788;9.196;2022-10-24T14:33:50;17.90;99.90
5759;DHT22;2904;48.788;9.196;2022-10-24T14:36:18;17.90;99.90
5759;DHT22;2904;48.788;9.196;2022-10-24T14:38:50;17.90;99.90
5759;DHT22;2904;48.788;9.196;2022-10-24T14:41:18;17.90;99.90
5759;DHT22;2904;48.788;9.196;2022-10-24T14:43:45;17.80;99.90
5759;DHT22;2904;48.788;9.196;2022-10-24T14:47:04;17.90;99.90
5759;DHT22;2904;48.788;9.196;2022-10-24T14:49:32;18.00;99.90
5759;DHT22;2904;48.788;9.196;2022-10-24T14:52:09;18.10;99.90
5759;DHT22;2904;48.788;9.196;2022-10-24T14:54:37;18.20;99.90
5759;DHT22;2904;48.788;9.196;2022-10-24T14:57:05;18.30;99.90
5759;DHT22;2904;48.788;9.196;2022-10-24T14:59:43;18.30;99.90
5759;DHT22;2904;48.788;9.196;2022-10-24T15:02:34;18.40;99.90
5759;DHT22;2904;48.788;9.196;2022-10-24T15:11:59;18.40;99.90
5759;DHT22;2904;48.788;9.196;2022-10-24T15:14:37;18.20;99.90
5759;DHT22;2904;48.788;9.196;2022-10-24T15:20:35;18.30;99.90
5759;DHT22;2904;48.788;9.196;2022-10-24T15:23:04;18.10;99.90
5759;DHT22;2904;48.788;9.196;2022-10-24T15:25:33;17.90;99.90
5759;DHT22;2904;48.788;9.196;2022-10-24T15:28:00;18.00;99.90
5759;DHT22;2904;48.788;9.196;2022-10-24T15:30:32;18.00;99.90
5759;DHT22;2904;48.788;9.196;2022-10-24T15:33:00;18.00;99.90
5759;DHT22;2904;48.788;9.196;2022-10-24T15:35:27;17.90;99.90
5759;DHT22;2904;48.788;9.196;2022-10-24T15:37:59;17.90;99.90
5759;DHT22;2904;48.788;9.196;2022-10-24T15:40:29;17.90;99.90
5759;DHT22;2904;48.788;9.196;2022-10-24T15:42:55;17.80;99.90
5759;DHT22;2904;48.788;9.196;2022-10-24T15:45:21;17.70;99.90
5759;DHT22;2904;48.788;9.196;2022-10-24T15:47:49;17.60;99.90
5759;DHT22;2904;48.788;9.196;2022-10-24T15:50:16;17.50;99.90
5759;DHT22;2904;48.788;9.196;2022-10-24T15:52:47;17.50;99.90
5759;DHT22;2904;48.788;9.196;2022-10-24T15:55:19;17.40;99.90
5759;DHT22;2904;48.788;9.196;2022-10-24T15:57:46;17.30;99.90
5759;DHT22;2904;48.788;9.196;2022-10-24T16:00:19;17.30;99.90
5759;DHT22;2904;48.788;9.196;2022-10-24T16:02:46;17.30;99.90
5759;DHT22;2904;48.788;9.196;2022-10-24T16:05:21;17.30;99.90
5759;DHT22;2904;48.788;9.196;2022-10-24T16:07:48;17.20;99.90
5759;DHT22;2904;48.788;9.196;2022-10-24T16:10:17;17.20;99.90
5759;DHT22;2904;48.788;9.196;2022-10-24T16:12:48;17.20;99.90
5759;DHT22;2904;48.788;9.196;2022-10-24T16:15:29;17.10;99.90
5759;DHT22;2904;48.788;9.196;2022-10-24T16:17:56;17.10;99.90
5759;DHT22;2904;48.788;9.196;2022-10-24T16:20:22;17.00;99.90
5759;DHT22;2904;48.788;9.196;2022-10-24T16:22:48;17.00;99.90
5759;DHT22;2904;48.788;9.196;2022-10-24T16:25:20;17.00;99.90
5759;DHT22;2904;48.788;9.196;2022-10-24T16:27:46;17.00;99.90
5759;DHT22;2904;48.788;9.196;2022-10-24T16:30:17;16.80;99.90
5759;DHT22;2904;48.788;9.196;2022-10-24T16:32:43;16.70;99.90
5759;DHT22;2904;48.788;9.196;2022-10-24T16:35:15;16.70;99.90
5759;DHT22;2904;48.788;9.196;2022-10-24T16:37:41;16.70;99.90
5759;DHT22;2904;48.788;9.196;2022-10-24T16:40:07;16.70;99.90
5759;DHT22;2904;48.788;9.196;2022-10-24T16:42:33;16.70;99.90
5759;DHT22;2904;48.788;9.196;2022-10-24T16:44:59;16.70;99.90
5759;DHT22;2904;48.788;9.196;2022-10-24T16:47:24;16.70;99.90
5759;DHT22;2904;48.788;9.196;2022-10-24T16:49:56;16.70;99.90
5759;DHT22;2904;48.788;9.196;2022-10-24T16:52:22;16.70;99.90
5759;DHT22;2904;48.788;9.196;2022-10-24T16:54:51;17.10;99.90
5759;DHT22;2904;48.788;9.196;2022-10-24T16:57:19;16.70;99.90
5759;DHT22;2904;48.788;9.196;2022-10-24T16:59:45;16.70;99.90
5759;DHT22;2904;48.788;9.196;2022-10-24T17:02:13;16.60;99.90
5759;DHT22;2904;48.788;9.196;2022-10-24T17:04:39;16.60;99.90
5759;DHT22;2904;48.788;9.196;2022-10-24T17:07:08;16.60;99.90
5759;DHT22;2904;48.788;9.196;2022-10-24T17:09:34;16.60;99.90
5759;DHT22;2904;48.788;9.196;2022-10-24T17:11:59;16.60;99.90
5759;DHT22;2904;48.788;9.196;2022-10-24T17:14:26;16.60;99.90
5759;DHT22;2904;48.788;9.196;2022-10-24T17:16:52;16.60;99.90
5759;DHT22;2904;48.788;9.196;2022-10-24T17:19:18;16.60;99.90
5759;DHT22;2904;48.788;9.196;2022-10-24T17:21:49;16.60;99.90
5759;DHT22;2904;48.788;9.196;2022-10-24T17:24:17;16.60;99.90
5759;DHT22;2904;48.788;9.196;2022-10-24T17:26:43;16.50;99.90
5759;DHT22;2904;48.788;9.196;2022-10-24T17:29:43;17.40;99.90
5759;DHT22;2904;48.788;9.196;2022-10-24T17:32:12;16.50;99.90
5759;DHT22;2904;48.788;9.196;2022-10-24T17:34:39;16.60;99.90
5759;DHT22;2904;48.788;9.196;2022-10-24T17:37:23;16.40;99.90
5759;DHT22;2904;48.788;9.196;2022-10-24T17:42:48;16.30;99.90
5759;DHT22;2904;48.788;9.196;2022-10-24T17:45:17;16.30;99.90
5759;DHT22;2904;48.788;9.196;2022-10-24T17:47:44;16.20;99.90
5759;DHT22;2904;48.788;9.196;2022-10-24T17:50:10;16.20;99.90
5759;DHT22;2904;48.788;9.196;2022-10-24T17:52:36;16.20;99.90